createdAt,value
2023-05-17T01:53:41.699Z,17.90
2023-05-17T01:56:17.935Z,18.13
2023-05-17T02:14:50.134Z,19.33
2023-05-17T02:32:22.105Z,20.90
2023-05-17T02:34:52.176Z,21.07
2023-05-17T02:37:21.851Z,21.07
2023-05-17T02:39:51.516Z,21.72
2023-05-17T02:56:59.970Z,24.22
2023-05-17T02:59:29.728Z,24.10
2023-05-17T03:01:59.411Z,24.56
2023-05-17T03:04:30.076Z,23.96
2023-05-17T03:07:00.341Z,24.65
2023-05-17T03:09:33.176Z,24.38
2023-05-17T03:12:09.142Z,24.77
2023-05-17T03:14:40.788Z,25.04
2023-05-17T03:17:12.348Z,25.15
2023-05-17T03:19:43.479Z,25.27
2023-05-17T03:22:13.363Z,25.35
2023-05-17T03:24:45.309Z,25.27
2023-05-17T03:27:15.102Z,25.82
2023-05-17T03:29:45.114Z,26.70
2023-05-17T03:32:15.055Z,26.87
2023-05-17T03:34:45.212Z,26.92
2023-05-17T03:37:15.345Z,27.55
2023-05-17T03:39:45.428Z,26.69
2023-05-17T03:42:36.265Z,27.12
2023-05-17T03:45:09.540Z,27.04
2023-05-17T03:47:39.514Z,27.74
2023-05-17T03:50:10.697Z,28.32
2023-05-17T03:52:43.261Z,28.50
2023-05-17T03:55:13.153Z,28.72
2023-05-17T03:57:43.211Z,28.81
2023-05-17T04:00:14.516Z,29.10
2023-05-17T04:02:44.404Z,28.95
2023-05-17T04:05:17.479Z,29.92
2023-05-17T04:07:49.195Z,30.04
2023-05-17T04:10:18.981Z,29.66
2023-05-17T04:12:49.079Z,29.70
2023-05-17T04:15:19.036Z,30.12
2023-05-17T04:17:49.240Z,30.23
2023-05-17T04:20:19.454Z,30.83
2023-05-17T04:22:49.797Z,30.77
2023-05-17T04:25:20.137Z,30.86
2023-05-17T04:27:50.046Z,30.39
2023-05-17T04:30:22.885Z,30.22
2023-05-17T04:32:52.876Z,31.14
2023-05-17T04:35:22.974Z,30.64
2023-05-17T04:37:55.681Z,31.32
2023-05-17T04:40:26.054Z,31.21
2023-05-17T04:42:56.616Z,31.52
2023-05-17T04:45:27.562Z,30.82
2023-05-17T04:47:57.801Z,31.51
2023-05-17T04:50:28.357Z,31.52
2023-05-17T04:52:58.477Z,31.82
2023-05-17T04:55:28.530Z,31.51
2023-05-17T04:57:58.891Z,31.57
2023-05-17T05:00:29.583Z,31.62
2023-05-17T05:03:06.402Z,31.37
2023-05-17T05:05:37.738Z,31.99
2023-05-17T05:08:07.854Z,31.57
2023-05-17T05:10:37.872Z,31.32
2023-05-17T05:13:08.153Z,31.74
2023-05-17T05:15:38.254Z,31.57
2023-05-17T05:18:08.708Z,30.31
2023-05-17T05:20:39.532Z,30.61
2023-05-17T05:23:09.693Z,31.19
2023-05-17T05:25:40.868Z,31.54
2023-05-17T05:28:11.112Z,30.07
2023-05-17T05:30:43.073Z,29.84
2023-05-17T05:33:14.231Z,29.98
2023-05-17T05:35:44.998Z,29.21
2023-05-17T05:38:14.725Z,30.05
2023-05-17T05:40:44.473Z,30.22
2023-05-17T05:43:14.189Z,30.17
2023-05-17T05:45:48.186Z,29.85
2023-05-17T05:48:18.651Z,29.89
2023-05-17T05:50:48.483Z,30.44
2023-05-17T05:53:20.017Z,30.36
2023-05-17T05:55:58.577Z,29.65
2023-05-17T05:58:28.900Z,29.64
2023-05-17T06:00:59.306Z,30.48
2023-05-17T06:03:29.376Z,29.65
2023-05-17T06:05:59.542Z,30.40
2023-05-17T06:08:29.674Z,30.09
2023-05-17T06:10:59.585Z,30.14
2023-05-17T06:13:29.866Z,30.11
2023-05-17T06:16:03.728Z,29.81
2023-05-17T06:18:34.409Z,30.49
2023-05-17T06:21:07.547Z,30.55
2023-05-17T06:23:37.636Z,30.15
2023-05-17T06:26:12.019Z,30.04
2023-05-17T06:28:41.997Z,30.26
2023-05-17T06:31:11.978Z,31.06
2023-05-17T06:33:41.958Z,30.62
2023-05-17T06:36:12.041Z,29.88
2023-05-17T06:38:41.860Z,30.29
2023-05-17T06:41:11.939Z,29.62
2023-05-17T06:43:41.853Z,30.17
2023-05-17T06:46:11.786Z,29.95
2023-05-17T06:48:42.101Z,30.60
2023-05-17T06:51:13.849Z,29.91
2023-05-17T06:53:43.753Z,31.04
2023-05-17T06:56:13.697Z,31.00
2023-05-17T06:58:43.704Z,31.59
2023-05-17T07:01:14.978Z,31.74
2023-05-17T07:03:45.603Z,31.16
2023-05-17T07:06:15.794Z,31.16
2023-05-17T07:08:47.553Z,31.52
2023-05-17T07:11:17.829Z,30.63
2023-05-17T07:13:48.578Z,31.35
2023-05-17T07:16:20.113Z,31.12
2023-05-17T07:18:50.118Z,30.43
2023-05-17T07:21:20.075Z,31.43
2023-05-17T07:23:49.806Z,31.23
2023-05-17T07:26:22.903Z,31.63
2023-05-17T07:28:53.235Z,31.87
2023-05-17T07:31:23.279Z,30.99
2023-05-17T07:33:53.125Z,31.31
2023-05-17T07:36:23.226Z,31.78
2023-05-17T07:38:56.177Z,30.26
2023-05-17T07:41:28.856Z,30.78
2023-05-17T07:44:01.220Z,31.13
2023-05-17T07:46:33.835Z,31.76
2023-05-17T07:49:04.989Z,31.97
2023-05-17T07:51:35.459Z,32.10
2023-05-17T07:54:07.373Z,33.15
2023-05-17T07:56:37.763Z,32.61
2023-05-17T07:59:08.681Z,32.06
2023-05-17T08:01:38.417Z,32.98
2023-05-17T08:04:08.977Z,33.09
2023-05-17T08:06:39.213Z,31.92
2023-05-17T08:09:10.878Z,32.48
2023-05-17T08:11:47.307Z,32.20
2023-05-17T08:14:20.482Z,32.54
2023-05-17T08:16:52.656Z,33.11
2023-05-17T08:19:22.697Z,32.10
2023-05-17T08:21:54.767Z,31.65
2023-05-17T08:24:24.736Z,31.75
2023-05-17T08:26:55.288Z,31.71
2023-05-17T08:29:25.298Z,30.33
2023-05-17T08:31:56.316Z,30.35
2023-05-17T08:34:27.054Z,31.49
2023-05-17T08:36:57.460Z,32.34
2023-05-17T08:39:27.255Z,32.62
2023-05-17T08:42:00.802Z,31.72
2023-05-17T08:44:30.534Z,30.97
2023-05-17T08:47:02.393Z,32.76
2023-05-17T08:49:39.453Z,32.82
2023-05-17T08:52:12.340Z,32.91
2023-05-17T08:54:43.872Z,31.88
2023-05-17T08:57:15.212Z,31.30
2023-05-17T08:59:46.173Z,31.38
2023-05-17T09:02:17.876Z,32.34
2023-05-17T09:04:48.832Z,32.88
2023-05-17T09:07:19.791Z,32.45
2023-05-17T09:09:49.829Z,32.35
2023-05-17T09:12:19.561Z,32.65
2023-05-17T09:14:50.255Z,33.17
2023-05-17T09:17:22.014Z,32.68
2023-05-17T09:19:53.558Z,31.89
2023-05-17T09:22:24.058Z,32.55
2023-05-17T09:24:54.289Z,31.95
2023-05-17T09:27:25.192Z,31.95
2023-05-17T09:29:57.556Z,32.05
2023-05-17T09:32:27.750Z,31.71
2023-05-17T09:35:01.062Z,31.73
2023-05-17T09:37:32.217Z,31.82
2023-05-17T09:40:03.496Z,31.21
2023-05-17T09:42:35.954Z,30.81
2023-05-17T09:45:06.359Z,31.17
2023-05-17T09:47:37.087Z,30.33
2023-05-17T09:50:09.844Z,28.30
2023-05-17T09:52:41.718Z,28.19
2023-05-17T09:55:13.341Z,29.18
2023-05-17T09:57:43.301Z,29.37
2023-05-17T10:00:14.918Z,30.46
2023-05-17T10:02:48.607Z,30.45
2023-05-17T10:05:20.805Z,30.54
2023-05-17T10:07:53.418Z,30.77
2023-05-17T10:10:24.837Z,30.41
2023-05-17T10:12:55.558Z,28.41
2023-05-17T10:15:25.505Z,29.19
2023-05-17T10:17:56.404Z,28.88
2023-05-17T10:20:26.899Z,28.87
2023-05-17T10:22:58.841Z,28.32
2023-05-17T10:25:29.899Z,28.74
2023-05-17T10:28:01.313Z,29.81
2023-05-17T10:30:31.559Z,29.44
2023-05-17T10:33:02.416Z,29.82
2023-05-17T10:35:34.281Z,28.78
2023-05-17T10:38:04.199Z,29.47
2023-05-17T10:40:34.663Z,28.70
2023-05-17T10:43:07.173Z,29.42
2023-05-17T10:45:39.634Z,29.19
2023-05-17T10:48:10.327Z,28.65
2023-05-17T10:50:54.043Z,27.62
2023-05-17T10:53:30.662Z,27.13
2023-05-17T10:56:00.403Z,27.42
2023-05-17T10:58:31.077Z,26.74
2023-05-17T11:01:01.628Z,26.78
2023-05-17T11:03:36.012Z,26.58
2023-05-17T11:06:24.673Z,26.48
2023-05-17T11:09:20.072Z,26.84
2023-05-17T11:12:10.413Z,26.72
2023-05-17T11:14:57.108Z,26.89
2023-05-17T11:17:37.006Z,26.42
2023-05-17T11:20:13.872Z,26.43
2023-05-17T11:22:44.297Z,26.76
2023-05-17T11:25:15.593Z,26.82
2023-05-17T11:27:51.729Z,25.71
2023-05-17T11:30:30.243Z,25.91
2023-05-17T11:33:11.007Z,25.94
2023-05-17T11:35:48.397Z,26.14
2023-05-17T11:38:25.459Z,25.86
2023-05-17T11:40:59.396Z,25.00
2023-05-17T11:43:32.354Z,25.21
2023-05-17T11:46:07.488Z,24.65
2023-05-17T11:48:38.332Z,24.26
2023-05-17T11:51:10.177Z,24.24
2023-05-17T11:53:41.938Z,23.96
2023-05-17T11:56:13.137Z,23.78
2023-05-17T11:58:44.354Z,23.99
2023-05-17T12:01:14.356Z,23.91
2023-05-17T12:03:44.837Z,23.91
2023-05-17T12:06:19.843Z,23.56
2023-05-17T12:08:50.536Z,23.59
2023-05-17T12:11:21.159Z,23.59
2023-05-17T12:13:53.458Z,23.52
2023-05-17T12:16:27.296Z,23.03
2023-05-17T12:18:59.742Z,23.01
2023-05-17T12:21:30.419Z,22.99
2023-05-17T12:24:00.276Z,22.62
2023-05-17T12:26:29.959Z,22.70
2023-05-17T12:29:01.718Z,22.33
2023-05-17T12:31:44.035Z,22.57
2023-05-17T12:34:15.732Z,22.28
2023-05-17T12:36:46.995Z,22.09
2023-05-17T12:39:19.299Z,22.22
2023-05-17T12:41:49.925Z,21.80
2023-05-17T12:44:21.968Z,21.67
2023-05-17T12:46:58.837Z,21.73
2023-05-17T12:49:28.585Z,21.62
2023-05-17T12:51:58.342Z,21.70
2023-05-17T12:54:29.460Z,21.58
2023-05-17T12:56:59.798Z,21.44
2023-05-17T12:59:30.534Z,21.26
2023-05-17T13:02:02.075Z,21.24
2023-05-17T13:04:41.176Z,20.95
2023-05-17T13:07:11.152Z,21.02
2023-05-17T13:09:51.058Z,20.89
2023-05-17T13:12:27.092Z,20.76
2023-05-17T13:14:57.116Z,20.65
2023-05-17T13:17:29.002Z,20.55
2023-05-17T13:20:00.112Z,20.29
2023-05-17T13:22:29.884Z,20.25
2023-05-17T13:25:00.421Z,20.00
2023-05-17T13:27:30.459Z,19.87
2023-05-17T13:30:00.263Z,19.96
2023-05-17T13:32:30.348Z,19.85
2023-05-17T13:35:00.465Z,19.50
2023-05-17T13:37:30.680Z,19.81
2023-05-17T13:40:00.580Z,19.77
2023-05-17T13:42:30.683Z,19.51
2023-05-17T13:45:03.165Z,19.65
2023-05-17T13:47:33.751Z,19.61
2023-05-17T13:50:05.854Z,19.46
2023-05-17T13:52:35.943Z,19.15
2023-05-17T13:55:06.959Z,19.30
2023-05-17T13:57:37.005Z,18.93
2023-05-17T14:00:08.304Z,19.14
2023-05-17T14:02:39.449Z,19.13
2023-05-17T14:05:11.238Z,18.88
2023-05-17T14:07:42.920Z,19.21
2023-05-17T14:10:16.520Z,19.08
2023-05-17T14:12:46.168Z,18.97
2023-05-17T14:15:16.743Z,19.06
2023-05-17T14:17:47.142Z,18.96
2023-05-17T14:20:17.556Z,18.85
2023-05-17T14:22:48.594Z,18.70
2023-05-17T14:25:19.436Z,19.13
2023-05-17T14:27:49.522Z,19.10
2023-05-17T14:30:19.433Z,18.97
2023-05-17T14:32:49.449Z,18.78
2023-05-17T14:35:19.540Z,18.70
2023-05-17T14:37:49.807Z,18.58
